Time;durP1;ratioP1;P1;durP2;ratioP2;P2;SDS_P1;SDS_P2;PMS_P1;PMS_P2;Temp;Humidity;BMP_temperature;BMP_pressure;BME280_temperature;BME280_humidity;BME280_pressure;Samples;Min_cycle;Max_cycle;Signal;HPM_P1;HPM_P2
2023/07/18 00:04:18;;;;;;;4.30;2.28;;;;;;;18.05;73.96;100300.75;10484662;28;20042;-74
2023/07/18 00:09:21;;;;;;;5.03;2.50;;;;;;;18.04;73.82;100297.13;10473918;28;20064;-74
2023/07/18 00:14:23;;;;;;;3.83;2.70;;;;;;;18.10;73.78;100294.97;10463363;28;20046;-73
2023/07/18 00:19:27;;;;;;;6.20;3.35;;;;;;;18.15;73.59;100288.38;10467364;28;20044;-73
2023/07/18 00:24:30;;;;;;;4.47;3.22;;;;;;;18.13;73.70;100288.72;10478090;28;20496;-73
2023/07/18 00:29:32;;;;;;;5.68;3.25;;;;;;;18.13;73.85;100283.19;10484794;28;20044;-73
2023/07/18 00:34:35;;;;;;;5.25;3.17;;;;;;;18.13;73.87;100280.41;10468468;28;20411;-74
2023/07/18 00:39:38;;;;;;;6.47;3.25;;;;;;;18.15;73.68;100271.72;10486946;28;20045;-74
2023/07/18 00:44:40;;;;;;;5.75;3.65;;;;;;;18.12;73.55;100270.44;10469565;28;20042;-74
2023/07/18 00:49:43;;;;;;;5.30;3.17;;;;;;;18.06;73.89;100271.81;10484301;28;20063;-74
2023/07/18 00:54:45;;;;;;;4.15;2.83;;;;;;;18.05;73.65;100270.19;10468135;28;20064;-74
2023/07/18 00:59:48;;;;;;;5.43;3.20;;;;;;;18.10;73.36;100269.16;10486507;28;20045;-74
2023/07/18 01:04:50;;;;;;;7.72;3.38;;;;;;;18.06;73.13;100267.09;10431468;28;20060;-74
2023/07/18 01:09:53;;;;;;;5.45;3.08;;;;;;;18.07;73.29;100267.88;10482094;28;20056;-73
2023/07/18 01:14:55;;;;;;;6.32;3.08;;;;;;;18.08;73.06;100266.72;10483014;28;20037;-74
2023/07/18 01:19:58;;;;;;;5.75;3.40;;;;;;;18.06;73.48;100261.53;10483983;28;20056;-74
2023/07/18 01:25:00;;;;;;;7.07;2.67;;;;;;;18.06;73.31;100255.97;10466242;28;20064;-74
2023/07/18 01:30:02;;;;;;;3.45;2.95;;;;;;;17.97;73.81;100252.44;10479464;28;20041;-74
2023/07/18 01:35:08;;;;;;;4.45;3.13;;;;;;;17.90;74.32;100246.66;10459113;28;20043;-74
2023/07/18 01:40:15;;;;;;;6.45;3.53;;;;;;;17.90;74.79;100237.50;10414763;28;20049;-73
2023/07/18 01:45:19;;;;;;;7.35;3.65;;;;;;;17.88;74.38;100240.63;10444054;28;20041;-74
2023/07/18 01:50:21;;;;;;;5.07;2.97;;;;;;;17.89;74.65;100238.66;10439504;28;20051;-74
2023/07/18 01:55:23;;;;;;;6.88;2.90;;;;;;;17.92;74.29;100233.22;10471013;28;20498;-74
2023/07/18 02:00:25;;;;;;;8.00;3.25;;;;;;;17.87;74.92;100218.72;10457060;28;20064;-74
2023/07/18 02:05:30;;;;;;;4.88;2.63;;;;;;;17.93;74.77;100217.38;10477194;28;20061;-74
2023/07/18 02:10:32;;;;;;;7.47;3.17;;;;;;;18.00;75.15;100212.91;10443469;28;20045;-73
2023/07/18 02:15:37;;;;;;;6.10;3.03;;;;;;;18.07;74.48;100218.72;10464373;28;20041;-74
2023/07/18 02:20:40;;;;;;;4.65;3.00;;;;;;;18.22;74.27;100216.44;10481746;28;20415;-74
2023/07/18 02:25:45;;;;;;;4.60;2.40;;;;;;;18.35;74.23;100220.88;10471963;28;20517;-74
2023/07/18 02:30:51;;;;;;;6.88;3.13;;;;;;;18.70;72.81;100212.16;10476111;28;20037;-74
2023/07/18 02:35:53;;;;;;;3.55;2.70;;;;;;;18.91;71.55;100202.56;10465865;28;20048;-73
2023/07/18 02:40:55;;;;;;;4.40;2.95;;;;;;;18.85;71.39;100209.50;10489254;28;20499;-74
2023/07/18 02:45:58;;;;;;;6.10;3.00;;;;;;;19.37;70.98;100208.78;10470293;28;20059;-74
2023/07/18 02:51:00;;;;;;;5.05;2.90;;;;;;;19.34;70.07;100211.44;10458852;28;20072;-73
2023/07/18 02:56:03;;;;;;;5.18;2.67;;;;;;;19.09;70.59;100207.88;10472138;28;20052;-74
2023/07/18 03:01:05;;;;;;;4.53;2.85;;;;;;;18.94;71.23;100199.09;10433239;28;20050;-73
2023/07/18 03:06:07;;;;;;;5.78;2.50;;;;;;;18.84;72.00;100196.78;10455057;28;20052;-74
2023/07/18 03:11:09;;;;;;;5.78;2.65;;;;;;;18.64;73.68;100189.34;10474014;28;20040;-74
2023/07/18 03:16:11;;;;;;;3.92;2.67;;;;;;;18.61;74.02;100181.69;10462801;28;20049;-74
2023/07/18 03:21:16;;;;;;;4.25;2.50;;;;;;;18.66;73.70;100173.94;10487692;28;20047;-73
2023/07/18 03:26:18;;;;;;;3.72;2.45;;;;;;;18.81;73.52;100169.66;10482647;28;20496;-74
2023/07/18 03:31:20;;;;;;;5.57;2.40;;;;;;;19.00;73.09;100165.50;10471212;28;20041;-73
2023/07/18 03:36:22;;;;;;;5.78;2.50;;;;;;;19.05;72.60;100162.47;10448294;28;20045;-73
2023/07/18 03:41:25;;;;;;;5.65;2.70;;;;;;;19.00;73.11;100163.53;10482666;28;20057;-74
2023/07/18 03:46:27;;;;;;;4.13;2.47;;;;;;;19.04;72.95;100149.72;10480572;28;20040;-74
2023/07/18 03:51:29;;;;;;;9.13;2.88;;;;;;;19.07;72.95;100149.00;10473220;28;20049;-74
2023/07/18 03:56:32;;;;;;;5.15;3.25;;;;;;;19.22;72.29;100151.88;10462124;28;20511;-73
2023/07/18 04:01:34;;;;;;;7.18;3.08;;;;;;;19.12;72.49;100146.00;10482952;28;20042;-73
2023/07/18 04:06:37;;;;;;;5.22;3.20;;;;;;;20.09;68.84;100148.44;10484527;28;20522;-75
2023/07/18 04:11:39;;;;;;;8.10;2.83;;;;;;;20.07;68.77;100159.13;10467571;28;20033;-74
2023/07/18 04:16:41;;;;;;;4.38;2.53;;;;;;;19.83;68.70;100151.72;10458803;28;20041;-74
2023/07/18 04:21:44;;;;;;;6.15;2.90;;;;;;;19.82;68.27;100158.47;10481494;28;20053;-75
2023/07/18 04:26:47;;;;;;;4.72;2.80;;;;;;;19.72;69.15;100152.56;10446453;28;20053;-74
2023/07/18 04:31:49;;;;;;;5.82;2.90;;;;;;;20.43;67.17;100155.34;10453823;28;20071;-74
2023/07/18 04:36:51;;;;;;;6.55;2.75;;;;;;;21.79;62.16;100147.28;10479390;28;20037;-74
2023/07/18 04:41:55;;;;;;;5.88;3.60;;;;;;;22.01;59.72;100142.91;10482404;28;20144;-74
2023/07/18 04:46:57;;;;;;;4.95;2.33;;;;;;;21.90;60.12;100140.75;10480653;28;20032;-74
2023/07/18 04:51:59;;;;;;;4.72;2.67;;;;;;;21.63;60.25;100144.56;10470389;28;20045;-74
2023/07/18 04:57:01;;;;;;;3.88;2.42;;;;;;;21.66;60.58;100139.03;10471331;28;20045;-74
2023/07/18 05:02:04;;;;;;;7.25;2.63;;;;;;;22.09;59.14;100130.72;10474790;28;20048;-74
2023/07/18 05:07:06;;;;;;;4.25;2.22;;;;;;;23.00;56.13;100130.66;10471962;28;20041;-74
2023/07/18 05:12:08;;;;;;;5.22;2.40;;;;;;;24.37;53.03;100131.16;10475700;28;20033;-74
2023/07/18 05:17:10;;;;;;;5.18;2.13;;;;;;;24.94;50.45;100127.59;10486505;28;20122;-74
2023/07/18 05:22:12;;;;;;;3.25;2.00;;;;;;;25.15;50.51;100117.72;10457836;28;20045;-74
2023/07/18 05:27:14;;;;;;;2.45;1.92;;;;;;;25.53;49.63;100130.38;10481587;28;20045;-74
2023/07/18 05:32:17;;;;;;;3.95;1.83;;;;;;;24.72;49.76;100119.41;10461952;28;20088;-74
2023/07/18 05:37:21;;;;;;;5.10;2.10;;;;;;;24.05;51.55;100126.00;10484029;28;20049;-74
2023/07/18 05:42:23;;;;;;;4.78;2.28;;;;;;;23.76;51.47;100113.66;10459977;28;20053;-74
2023/07/18 05:47:25;;;;;;;3.70;2.35;;;;;;;23.74;52.42;100118.84;10459135;28;20040;-74
2023/07/18 05:52:27;;;;;;;5.07;2.65;;;;;;;23.47;52.67;100115.31;10484949;28;20051;-74
2023/07/18 05:57:30;;;;;;;4.18;2.38;;;;;;;23.09;53.75;100108.03;10484981;28;20527;-74
2023/07/18 06:02:33;;;;;;;3.45;2.10;;;;;;;22.52;55.03;100104.31;10485234;28;20053;-74
2023/07/18 06:07:35;;;;;;;3.70;2.08;;;;;;;22.20;56.08;100095.38;10485625;28;20037;-74
2023/07/18 06:12:37;;;;;;;5.32;2.20;;;;;;;21.96;57.10;100086.16;10491388;28;20045;-74
2023/07/18 06:17:39;;;;;;;3.22;2.30;;;;;;;21.79;56.99;100094.22;10493947;28;20041;-74
2023/07/18 06:22:44;;;;;;;6.82;2.10;;;;;;;21.75;57.10;100084.97;10493249;28;20064;-74
2023/07/18 06:27:46;;;;;;;2.30;2.10;;;;;;;21.94;57.28;100070.97;10491538;28;20132;-74
2023/07/18 06:32:48;;;;;;;4.40;2.13;;;;;;;21.97;57.06;100070.22;10493528;28;20491;-74
2023/07/18 06:37:50;;;;;;;2.85;1.90;;;;;;;21.78;56.72;100068.28;10492818;28;20029;-74
2023/07/18 06:42:52;;;;;;;3.65;1.70;;;;;;;21.70;57.76;100072.13;10493082;28;20419;-74
2023/07/18 06:47:55;;;;;;;13.95;3.05;;;;;;;21.70;56.05;100072.13;10492474;28;20041;-74
2023/07/18 06:52:57;;;;;;;5.25;2.33;;;;;;;21.93;55.00;100070.16;10492125;28;20435;-74
2023/07/18 06:57:59;;;;;;;6.80;2.10;;;;;;;22.17;55.42;100068.19;10491940;28;20044;-74
2023/07/18 07:03:01;;;;;;;4.35;2.40;;;;;;;22.15;55.46;100065.78;10491240;28;20048;-74
2023/07/18 07:08:10;;;;;;;5.93;2.13;;;;;;;21.88;56.39;100062.09;10491533;28;20052;-74
2023/07/18 07:13:12;;;;;;;6.15;2.33;;;;;;;22.00;55.34;100063.88;10489605;28;20064;-74
2023/07/18 07:18:14;;;;;;;7.38;2.65;;;;;;;21.93;54.06;100058.97;10490816;28;20495;-74
2023/07/18 07:23:16;;;;;;;4.35;2.15;;;;;;;21.97;54.79;100059.84;10490998;28;20040;-74
2023/07/18 07:28:19;;;;;;;9.30;2.38;;;;;;;22.28;55.26;100044.03;10490583;28;20427;-74
2023/07/18 07:33:21;;;;;;;3.97;2.25;;;;;;;22.18;55.50;100045.47;10490908;28;20059;-74
2023/07/18 07:38:24;;;;;;;4.10;2.00;;;;;;;21.99;54.60;100053.88;10490276;28;20435;-74
2023/07/18 07:43:26;;;;;;;5.40;1.92;;;;;;;21.76;54.56;100051.06;10489832;28;20053;-74
2023/07/18 07:48:28;;;;;;;11.30;3.15;;;;;;;21.69;55.26;100053.72;10490057;28;20044;-75
2023/07/18 07:53:30;;;;;;;6.35;1.95;;;;;;;21.33;56.65;100058.59;10485146;28;20052;-74
2023/07/18 07:58:32;;;;;;;4.35;2.22;;;;;;;20.99;57.76;100059.44;10471713;28;20037;-74
2023/07/18 08:03:35;;;;;;;5.82;2.40;;;;;;;21.07;58.36;100052.88;10485147;28;20056;-74
2023/07/18 08:08:37;;;;;;;4.00;2.70;;;;;;;21.25;57.52;100045.69;10488701;28;20053;-74
2023/07/18 08:13:39;;;;;;;5.10;2.40;;;;;;;21.46;58.63;100027.75;10488794;28;20438;-74
2023/07/18 08:18:41;;;;;;;4.97;2.63;;;;;;;21.78;58.26;100029.16;10488491;28;20048;-74
2023/07/18 08:23:43;;;;;;;6.88;3.42;;;;;;;22.21;57.73;100032.72;10462670;28;20526;-75
2023/07/18 08:28:45;;;;;;;12.57;4.35;;;;;;;22.48;57.84;100028.78;10476677;28;20044;-73
2023/07/18 08:33:48;;;;;;;6.07;2.92;;;;;;;22.83;55.51;100027.69;10470202;28;20060;-75
2023/07/18 08:38:50;;;;;;;5.63;3.13;;;;;;;23.28;54.20;100021.09;10475046;28;20053;-75
2023/07/18 08:43:52;;;;;;;5.82;2.53;;;;;;;24.14;52.16;100025.59;10446130;28;20444;-74
2023/07/18 08:48:55;;;;;;;6.40;2.70;;;;;;;23.53;53.74;100012.16;10445853;28;20054;-75
2023/07/18 08:53:57;;;;;;;4.55;2.42;;;;;;;23.65;52.19;100012.72;10445583;28;20045;-74
2023/07/18 08:59:02;;;;;;;6.40;2.83;;;;;;;23.22;51.95;100013.41;10445758;28;20049;-73
2023/07/18 09:04:04;;;;;;;3.50;2.03;;;;;;;22.84;53.61;100009.72;10444501;28;20045;-76
2023/07/18 09:09:14;;;;;;;6.22;2.58;;;;;;;22.51;55.03;100008.44;10446132;28;20045;-75
2023/07/18 09:14:24;;;;;;;10.77;2.78;;;;;;;22.73;54.29;100000.34;10449176;28;20048;-75
2023/07/18 09:19:38;;;;;;;4.05;2.45;;;;;;;22.42;54.17;100009.91;10486436;28;20049;-73
2023/07/18 09:24:41;;;;;;;6.40;2.60;;;;;;;21.84;56.84;100008.13;10486292;28;20485;-74
2023/07/18 09:29:45;;;;;;;7.25;2.92;;;;;;;21.35;58.55;100010.81;10485124;28;20045;-74
2023/07/18 09:34:54;;;;;;;4.70;3.08;;;;;;;21.50;59.27;100000.72;10468833;28;20037;-74
2023/07/18 09:39:56;;;;;;;5.97;3.22;;;;;;;21.41;59.40;99991.78;10485612;28;20514;-73
2023/07/18 09:44:59;;;;;;;6.75;3.25;;;;;;;21.21;60.35;99991.78;10485578;28;20431;-74
2023/07/18 09:50:02;;;;;;;8.20;3.70;;;;;;;20.95;61.88;99988.84;10485575;28;20052;-73
2023/07/18 09:55:06;;;;;;;5.05;3.30;;;;;;;20.24;65.08;99987.22;10485143;28;20052;-74
2023/07/18 10:00:15;;;;;;;10.85;3.80;;;;;;;19.39;71.14;99989.41;10484588;28;20069;-73
2023/07/18 10:05:17;;;;;;;6.05;3.55;;;;;;;19.17;72.71;99988.03;10485396;28;20048;-75
2023/07/18 10:10:19;;;;;;;7.88;3.15;;;;;;;19.20;73.18;99981.75;10467874;28;20442;-75
2023/07/18 10:15:23;;;;;;;5.05;3.00;;;;;;;19.25;72.00;99977.91;10485545;28;20040;-76
2023/07/18 10:20:31;;;;;;;6.40;2.95;;;;;;;19.60;69.90;99985.63;10485258;28;20040;-75
2023/07/18 10:25:33;;;;;;;3.75;2.50;;;;;;;19.86;67.15;99980.34;10484769;28;20106;-75
2023/07/18 10:30:41;;;;;;;4.15;2.35;;;;;;;19.95;66.21;99982.94;10485514;28;20044;-75
2023/07/18 10:35:43;;;;;;;5.10;2.40;;;;;;;20.21;64.73;99979.59;10484873;28;20037;-74
2023/07/18 10:40:45;;;;;;;6.00;3.33;;;;;;;20.83;63.11;99983.41;10484611;28;20071;-74
2023/07/18 10:45:47;;;;;;;6.20;3.40;;;;;;;20.65;64.04;99981.06;10484654;28;20041;-74
2023/07/18 10:50:50;;;;;;;6.97;3.28;;;;;;;21.05;63.01;99985.47;10484700;28;20503;-73
2023/07/18 10:55:54;;;;;;;5.90;3.40;;;;;;;21.40;62.47;99976.22;10485055;28;20062;-73
2023/07/18 11:00:56;;;;;;;4.47;3.17;;;;;;;21.27;62.05;99984.75;10491752;28;20384;-74
2023/07/18 11:05:58;;;;;;;4.03;2.85;;;;;;;21.33;61.77;99986.03;10473885;28;20048;-75
2023/07/18 11:11:05;;;;;;;4.85;2.95;;;;;;;20.49;63.35;99994.22;10491114;28;20418;-75
2023/07/18 11:16:09;;;;;;;5.30;2.88;;;;;;;19.92;66.19;99990.03;10490777;28;20064;-75
2023/07/18 11:21:13;;;;;;;4.80;2.85;;;;;;;19.29;68.15;99992.75;10486404;28;20044;-75
2023/07/18 11:26:17;;;;;;;5.50;2.38;;;;;;;18.56;68.34;99990.16;10489601;28;20511;-74
2023/07/18 11:31:27;;;;;;;4.10;1.70;;;;;;;18.43;70.22;99994.13;10490410;28;20069;-74
2023/07/18 11:36:33;;;;;;;26.52;4.85;;;;;;;18.12;70.97;99983.63;10491176;28;20041;-74
2023/07/18 11:41:40;;;;;;;6.40;2.40;;;;;;;17.88;69.94;99987.22;10490030;28;20053;-74
2023/07/18 11:46:43;;;;;;;2.67;2.03;;;;;;;17.57;72.34;99985.75;10490099;28;20048;-75
2023/07/18 11:51:45;;;;;;;4.72;2.50;;;;;;;17.48;74.89;99983.06;10489940;28;20040;-75
2023/07/18 11:56:48;;;;;;;5.93;2.47;;;;;;;17.35;75.53;99975.84;10489600;28;20072;-75
2023/07/18 12:01:50;;;;;;;5.85;2.80;;;;;;;17.29;77.44;99968.13;10489716;28;20045;-74
2023/07/18 12:06:52;;;;;;;5.13;2.40;;;;;;;17.73;76.39;99972.88;10484836;28;20136;-75
2023/07/18 12:11:54;;;;;;;5.55;2.65;;;;;;;17.95;76.29;99965.25;10488542;28;20056;-74
2023/07/18 12:16:56;;;;;;;3.78;2.28;;;;;;;17.50;77.44;99954.97;10489386;28;20041;-74
2023/07/18 12:21:58;;;;;;;6.00;2.40;;;;;;;17.65;77.74;99946.00;10488388;28;20056;-74
2023/07/18 12:27:00;;;;;;;3.42;2.58;;;;;;;17.67;77.89;99927.03;10488022;28;20041;-74
2023/07/18 12:32:04;;;;;;;3.90;2.75;;;;;;;18.15;75.83;99927.41;10488507;28;20542;-74
2023/07/18 12:37:07;;;;;;;4.18;2.88;;;;;;;18.06;76.04;99928.34;10482677;28;20049;-74
2023/07/18 12:42:10;;;;;;;9.02;3.17;;;;;;;18.09;77.17;99926.84;10486418;28;20526;-74
2023/07/18 12:47:12;;;;;;;7.30;3.42;;;;;;;18.55;76.11;99921.84;10487746;28;20057;-73
2023/07/18 12:52:14;;;;;;;6.13;2.60;;;;;;;18.67;75.53;99925.44;10488059;28;20045;-74
2023/07/18 12:57:17;;;;;;;4.18;2.90;;;;;;;18.70;76.98;99937.81;10485834;28;20048;-74
2023/07/18 13:02:19;;;;;;;5.82;3.20;;;;;;;18.39;79.06;99930.91;10481770;28;20048;-74
2023/07/18 13:07:21;;;;;;;3.35;2.35;;;;;;;18.09;77.64;99937.94;10486928;28;20060;-74
2023/07/18 13:12:23;;;;;;;3.30;2.15;;;;;;;18.13;76.12;99922.19;10486399;28;20419;-74
2023/07/18 13:17:26;;;;;;;4.43;2.40;;;;;;;18.14;75.70;99915.47;10486672;28;20045;-74
2023/07/18 13:22:29;;;;;;;3.60;2.00;;;;;;;18.13;76.17;99913.06;10486002;28;20052;-74
2023/07/18 13:27:31;;;;;;;6.32;2.30;;;;;;;18.11;76.69;99907.03;10486025;28;20052;-74
2023/07/18 13:32:33;;;;;;;5.88;2.28;;;;;;;18.24;75.10;99901.13;10485984;28;20051;-74
2023/07/18 13:37:35;;;;;;;5.38;2.85;;;;;;;18.23;74.09;99910.63;10482066;28;20048;-74
2023/07/18 13:42:37;;;;;;;4.63;2.28;;;;;;;18.39;74.34;99905.13;10485469;28;20427;-74
2023/07/18 13:47:39;;;;;;;7.25;2.78;;;;;;;18.28;74.96;99896.47;10485695;28;20045;-74
2023/07/18 13:52:43;;;;;;;6.75;2.63;;;;;;;17.96;74.86;99889.13;10486126;28;20514;-74
2023/07/18 13:57:46;;;;;;;4.85;2.45;;;;;;;18.00;74.70;99878.94;10486169;28;20041;-74
2023/07/18 14:02:49;;;;;;;5.03;2.72;;;;;;;18.26;74.28;99875.78;10485426;28;20048;-74
2023/07/18 14:07:51;;;;;;;3.47;2.28;;;;;;;18.68;72.87;99854.00;10485579;28;20041;-74
2023/07/18 14:12:53;;;;;;;5.45;2.92;;;;;;;18.06;75.25;99852.56;10485400;28;20052;-74
2023/07/18 14:17:55;;;;;;;4.15;2.95;;;;;;;18.13;75.56;99855.56;10484551;28;20045;-73
2023/07/18 14:22:58;;;;;;;6.28;3.05;;;;;;;18.78;73.40;99858.25;10484707;28;20499;-73
2023/07/18 14:28:00;;;;;;;7.22;3.20;;;;;;;18.73;74.79;99853.72;10484294;28;20051;-73
2023/07/18 14:33:02;;;;;;;5.78;3.10;;;;;;;18.67;74.76;99847.63;10484473;28;20549;-73
2023/07/18 14:38:04;;;;;;;5.63;3.20;;;;;;;18.47;75.46;99850.59;10492594;28;20040;-74
2023/07/18 14:43:08;;;;;;;4.35;2.83;;;;;;;18.85;74.26;99847.31;10492377;28;20793;-74
2023/07/18 14:48:10;;;;;;;5.45;3.33;;;;;;;18.83;73.91;99836.56;10492211;28;20044;-74
2023/07/18 14:53:12;;;;;;;6.03;2.80;;;;;;;18.83;73.67;99825.44;10492743;28;20407;-74
2023/07/18 14:58:15;;;;;;;4.65;2.50;;;;;;;19.19;71.87;99835.50;10493296;28;20044;-74
2023/07/18 15:03:17;;;;;;;2.97;2.60;;;;;;;19.17;71.68;99837.84;10492338;28;20056;-74
2023/07/18 15:08:19;;;;;;;6.55;2.88;;;;;;;19.32;71.50;99839.00;10491644;28;20045;-74
2023/07/18 15:13:21;;;;;;;7.95;3.03;;;;;;;19.19;71.33;99835.50;10490886;28;20047;-76
2023/07/18 15:18:23;;;;;;;8.77;3.53;;;;;;;19.04;72.79;99827.97;10487984;28;20444;-74
2023/07/18 15:23:25;;;;;;;5.07;3.10;;;;;;;19.06;72.12;99830.38;10491203;28;20048;-74
2023/07/18 15:28:28;;;;;;;6.15;3.08;;;;;;;19.04;71.05;99827.16;10490093;28;20053;-74
2023/07/18 15:33:31;;;;;;;6.55;3.30;;;;;;;19.07;71.47;99820.88;10490757;28;20044;-75
2023/07/18 15:38:33;;;;;;;5.00;2.88;;;;;;;18.97;71.92;99817.47;10490159;28;20411;-74
2023/07/18 15:43:35;;;;;;;3.50;2.30;;;;;;;19.20;71.53;99806.53;10489850;28;20411;-74
2023/07/18 15:48:43;;;;;;;5.15;2.75;;;;;;;19.22;71.49;99798.63;10489857;28;20052;-75
2023/07/18 15:53:45;;;;;;;6.47;2.55;;;;;;;18.87;72.84;99794.94;10489578;28;20438;-74
2023/07/18 15:58:48;;;;;;;5.13;2.67;;;;;;;18.82;72.83;99795.22;10485838;28;20041;-75
2023/07/18 16:03:50;;;;;;;4.25;3.05;;;;;;;18.76;72.38;99788.31;10485665;28;20427;-74
2023/07/18 16:08:52;;;;;;;4.20;2.58;;;;;;;18.86;71.45;99782.22;10487119;28;20045;-74
2023/07/18 16:13:54;;;;;;;3.95;2.17;;;;;;;18.77;71.09;99792.69;10480637;28;20055;-73
2023/07/18 16:18:59;;;;;;;2.30;1.65;;;;;;;18.56;72.54;99784.53;10488867;28;20060;-75
2023/07/18 16:24:02;;;;;;;3.35;1.73;;;;;;;18.34;73.57;99795.06;10488337;28;20486;-79
2023/07/18 16:29:04;;;;;;;2.75;1.73;;;;;;;18.24;73.52;99789.22;10482777;28;20048;-80
2023/07/18 16:34:06;;;;;;;4.13;2.15;;;;;;;18.65;72.54;99793.56;10479625;28;20061;-78
2023/07/18 16:39:08;;;;;;;4.38;2.15;;;;;;;18.87;72.11;99790.19;10469809;28;20037;-80
2023/07/18 16:44:10;;;;;;;4.20;2.15;;;;;;;18.86;72.29;99793.31;10472515;28;20045;-82
2023/07/18 16:49:12;;;;;;;2.55;1.80;;;;;;;18.70;73.25;99790.53;10477074;28;20049;-76
2023/07/18 16:54:16;;;;;;;7.40;3.53;;;;;;;18.30;75.28;99783.06;10480270;28;20041;-78
2023/07/18 16:59:18;;;;;;;5.43;2.92;;;;;;;18.13;75.82;99768.66;10463669;28;20155;-75
2023/07/18 17:04:20;;;;;;;4.60;2.80;;;;;;;18.24;75.84;99756.72;10471836;28;20045;-76
2023/07/18 17:09:22;;;;;;;2.75;1.73;;;;;;;18.03;75.28;99761.63;10480348;28;20529;-75
2023/07/18 17:14:24;;;;;;;2.60;1.80;;;;;;;18.00;75.58;99752.06;10482751;28;20407;-75
2023/07/18 17:19:26;;;;;;;2.30;1.55;;;;;;;18.16;75.05;99743.78;10483923;28;20025;-76
2023/07/18 17:24:28;;;;;;;1.70;1.27;;;;;;;17.98;74.74;99751.59;10482829;28;20049;-78
2023/07/18 17:29:31;;;;;;;3.67;1.17;;;;;;;18.14;73.66;99750.84;10466553;28;20049;-78
2023/07/18 17:34:35;;;;;;;2.50;1.20;;;;;;;18.14;73.28;99751.66;10482859;28;20056;-76
2023/07/18 17:39:37;;;;;;;1.98;1.10;;;;;;;17.91;74.05;99756.16;10482652;28;20083;-75
2023/07/18 17:44:40;;;;;;;2.88;1.20;;;;;;;18.33;72.64;99751.78;10477669;28;20507;-74
2023/07/18 17:49:42;;;;;;;3.13;1.50;;;;;;;18.13;73.61;99747.25;10480511;28;20041;-74
2023/07/18 17:54:45;;;;;;;4.25;1.63;;;;;;;17.95;73.63;99737.63;10483249;28;20049;-74
2023/07/18 17:59:48;;;;;;;2.33;1.20;;;;;;;18.08;72.60;99730.88;10476216;28;20415;-76
2023/07/18 18:04:54;;;;;;;3.55;1.30;;;;;;;17.96;72.59;99733.69;10483950;28;20036;-86
2023/07/18 18:09:56;;;;;;;1.17;1.07;;;;;;;17.85;73.54;99725.03;10475561;28;20048;-84
2023/07/18 18:14:58;;;;;;;3.58;1.08;;;;;;;17.84;72.55;99725.38;10486235;28;20059;-80
2023/07/18 18:20:00;;;;;;;2.45;0.90;;;;;;;17.66;73.01;99720.09;10488738;28;20041;-75
2023/07/18 18:25:03;;;;;;;2.15;0.82;;;;;;;17.58;73.37;99715.50;10488547;28;20045;-74
2023/07/18 18:30:07;;;;;;;1.52;0.90;;;;;;;17.25;73.37;99714.88;10485534;28;20056;-75
2023/07/18 18:35:09;;;;;;;0.77;0.73;;;;;;;17.25;73.70;99720.41;10452228;28;20037;-74
2023/07/18 18:40:11;;;;;;;2.10;1.13;;;;;;;17.16;74.03;99717.75;10473226;28;20056;-75
2023/07/18 18:45:13;;;;;;;1.85;0.93;;;;;;;17.32;74.08;99720.63;10489987;28;20045;-74
2023/07/18 18:50:19;;;;;;;2.28;0.80;;;;;;;17.27;74.57;99723.63;10485674;28;20055;-74
2023/07/18 18:55:21;;;;;;;0.70;0.70;;;;;;;17.03;75.51;99716.16;10488621;28;20037;-76
2023/07/18 19:00:23;;;;;;;1.35;0.95;;;;;;;17.04;75.54;99707.50;10488958;28;20056;-76
2023/07/18 19:05:26;;;;;;;1.45;0.95;;;;;;;17.09;76.01;99706.44;10472113;28;20048;-80
2023/07/18 19:10:28;;;;;;;1.15;0.70;;;;;;;17.27;74.96;99707.00;10467899;28;20052;-82
2023/07/18 19:15:30;;;;;;;2.35;1.27;;;;;;;17.03;75.78;99703.09;10461103;28;20049;-83
2023/07/18 19:20:32;;;;;;;2.40;0.85;;;;;;;16.88;75.98;99701.03;10489796;28;20044;-85
2023/07/18 19:25:34;;;;;;;1.85;0.90;;;;;;;16.78;77.03;99709.78;10472723;28;20045;-75
2023/07/18 19:30:36;;;;;;;3.00;1.08;;;;;;;16.88;75.24;99698.25;10471491;28;20040;-75
2023/07/18 19:35:38;;;;;;;2.50;1.00;;;;;;;16.62;76.15;99697.72;10469502;28;20036;-75
2023/07/18 19:40:41;;;;;;;1.98;0.90;;;;;;;16.67;76.39;99694.78;10465302;28;20045;-74
2023/07/18 19:45:43;;;;;;;1.52;1.17;;;;;;;16.81;75.48;99684.97;10488737;28;20499;-75
2023/07/18 19:50:45;;;;;;;1.90;1.30;;;;;;;16.80;75.20;99688.06;10488045;28;20042;-76
2023/07/18 19:55:48;;;;;;;4.10;0.90;;;;;;;16.82;74.69;99694.88;10471128;28;20675;-75
2023/07/18 20:00:50;;;;;;;2.55;1.23;;;;;;;16.29;76.46;99691.09;10470333;28;20053;-76
2023/07/18 20:05:53;;;;;;;5.32;1.17;;;;;;;16.20;76.27;99703.41;10488434;28;20044;-76
2023/07/18 22:50:19;;;;;;;1.15;0.95;;;;;;;16.23;82.96;99612.19;10456956;28;1983957;-77
2023/07/18 22:55:21;;;;;;;2.42;1.10;;;;;;;16.39;82.24;99606.78;10507389;28;20628;-77
2023/07/18 23:00:23;;;;;;;1.40;0.95;;;;;;;16.34;82.44;99609.00;10514355;28;20041;-78
2023/07/18 23:05:25;;;;;;;1.80;1.00;;;;;;;16.36;82.45;99607.47;10481019;28;20529;-78
2023/07/18 23:10:27;;;;;;;4.07;0.90;;;;;;;16.33;82.50;99597.09;10531141;28;20049;-78
2023/07/18 23:15:30;;;;;;;4.72;1.02;;;;;;;16.31;82.46;99593.84;10526203;28;20047;-77
2023/07/18 23:20:32;;;;;;;1.90;1.00;;;;;;;16.06;83.29;99597.75;10528007;28;20049;-75
2023/07/18 23:25:34;;;;;;;3.42;1.00;;;;;;;16.11;84.12;99587.25;10529373;28;20048;-73
2023/07/18 23:30:41;;;;;;;2.45;1.00;;;;;;;15.92;84.29;99573.97;10529385;28;20036;-75
2023/07/18 23:35:43;;;;;;;2.30;0.98;;;;;;;15.93;84.39;99572.81;10502436;28;20037;-75
2023/07/18 23:40:46;;;;;;;2.40;0.90;;;;;;;15.90;84.26;99579.03;10517045;28;20525;-75
2023/07/18 23:45:48;;;;;;;2.05;1.13;;;;;;;15.91;84.39;99580.66;10529076;28;20056;-75
2023/07/18 23:50:50;;;;;;;2.55;1.20;;;;;;;15.87;84.49;99571.44;10528372;28;20052;-75
2023/07/18 23:55:52;;;;;;;1.67;1.00;;;;;;;15.92;84.05;99568.44;10476330;28;20059;-75
